sensor_id;sensor_type;location;lat;lon;timestamp;temperature;humidity
64685;DHT22;51109;47.414;18.954;2022-12-24T00:00:35;5.00;99.90
64685;DHT22;51109;47.414;18.954;2022-12-24T00:03:01;5.00;99.90
64685;DHT22;51109;47.414;18.954;2022-12-24T00:05:27;5.00;99.90
64685;DHT22;51109;47.414;18.954;2022-12-24T00:07:53;5.00;99.90
64685;DHT22;51109;47.414;18.954;2022-12-24T00:10:19;5.00;99.90
64685;DHT22;51109;47.414;18.954;2022-12-24T00:12:45;5.00;99.90
64685;DHT22;51109;47.414;18.954;2022-12-24T00:15:11;5.00;99.90
64685;DHT22;51109;47.414;18.954;2022-12-24T00:17:37;4.90;99.90
64685;DHT22;51109;47.414;18.954;2022-12-24T00:20:04;4.90;99.90
64685;DHT22;51109;47.414;18.954;2022-12-24T00:22:30;4.90;99.90
64685;DHT22;51109;47.414;18.954;2022-12-24T00:24:56;4.90;99.90
64685;DHT22;51109;47.414;18.954;2022-12-24T00:27:21;5.00;99.90
64685;DHT22;51109;47.414;18.954;2022-12-24T00:29:51;5.00;99.90
64685;DHT22;51109;47.414;18.954;2022-12-24T00:32:17;5.00;99.90
64685;DHT22;51109;47.414;18.954;2022-12-24T00:34:43;5.00;99.90
64685;DHT22;51109;47.414;18.954;2022-12-24T00:37:09;5.10;99.90
64685;DHT22;51109;47.414;18.954;2022-12-24T00:39:34;5.10;99.90
64685;DHT22;51109;47.414;18.954;2022-12-24T00:42:00;5.10;99.90
64685;DHT22;51109;47.414;18.954;2022-12-24T00:44:26;5.20;99.90
64685;DHT22;51109;47.414;18.954;2022-12-24T00:46:52;5.20;99.90
64685;DHT22;51109;47.414;18.954;2022-12-24T00:49:18;5.20;99.90
64685;DHT22;51109;47.414;18.954;2022-12-24T00:51:44;5.10;99.90
64685;DHT22;51109;47.414;18.954;2022-12-24T00:54:14;5.10;99.90
64685;DHT22;51109;47.414;18.954;2022-12-24T00:56:40;5.10;99.90
64685;DHT22;51109;47.414;18.954;2022-12-24T00:59:06;5.10;99.90
64685;DHT22;51109;47.414;18.954;2022-12-24T01:01:32;5.10;99.90
64685;DHT22;51109;47.414;18.954;2022-12-24T01:04:00;5.10;99.90
64685;DHT22;51109;47.414;18.954;2022-12-24T01:06:44;5.20;99.90
64685;DHT22;51109;47.414;18.954;2022-12-24T01:09:10;5.20;99.90
64685;DHT22;51109;47.414;18.954;2022-12-24T01:11:36;5.20;99.90
64685;DHT22;51109;47.414;18.954;2022-12-24T01:14:02;5.10;99.90
64685;DHT22;51109;47.414;18.954;2022-12-24T01:16:28;5.20;99.90
64685;DHT22;51109;47.414;18.954;2022-12-24T01:18:54;5.20;99.90
64685;DHT22;51109;47.414;18.954;2022-12-24T01:21:20;5.20;99.90
64685;DHT22;51109;47.414;18.954;2022-12-24T01:23:46;5.20;99.90
64685;DHT22;51109;47.414;18.954;2022-12-24T01:26:12;5.20;99.90
64685;DHT22;51109;47.414;18.954;2022-12-24T01:28:38;5.10;99.90
64685;DHT22;51109;47.414;18.954;2022-12-24T01:31:15;5.00;99.90
64685;DHT22;51109;47.414;18.954;2022-12-24T01:33:42;5.00;99.90
64685;DHT22;51109;47.414;18.954;2022-12-24T01:36:09;4.90;99.90
64685;DHT22;51109;47.414;18.954;2022-12-24T01:38:36;5.10;99.90
64685;DHT22;51109;47.414;18.954;2022-12-24T01:41:02;5.00;99.90
64685;DHT22;51109;47.414;18.954;2022-12-24T01:43:47;4.90;99.90
64685;DHT22;51109;47.414;18.954;2022-12-24T01:49:00;4.80;99.90
64685;DHT22;51109;47.414;18.954;2022-12-24T01:51:45;4.80;99.90
64685;DHT22;51109;47.414;18.954;2022-12-24T01:57:41;4.80;99.90
64685;DHT22;51109;47.414;18.954;2022-12-24T02:05:50;4.80;99.90
64685;DHT22;51109;47.414;18.954;2022-12-24T02:08:17;4.80;99.90
64685;DHT22;51109;47.414;18.954;2022-12-24T02:10:44;4.80;99.90
64685;DHT22;51109;47.414;18.954;2022-12-24T02:13:11;4.80;99.90
64685;DHT22;51109;47.414;18.954;2022-12-24T02:16:01;4.80;99.90
64685;DHT22;51109;47.414;18.954;2022-12-24T02:22:03;4.70;99.90
64685;DHT22;51109;47.414;18.954;2022-12-24T02:30:07;4.90;99.90
64685;DHT22;51109;47.414;18.954;2022-12-24T02:35:33;4.90;99.90
64685;DHT22;51109;47.414;18.954;2022-12-24T02:40:55;4.80;99.90
64685;DHT22;51109;47.414;18.954;2022-12-24T02:43:26;4.80;99.90
64685;DHT22;51109;47.414;18.954;2022-12-24T02:45:57;4.80;99.90
64685;DHT22;51109;47.414;18.954;2022-12-24T02:48:25;4.80;99.90
64685;DHT22;51109;47.414;18.954;2022-12-24T02:51:11;4.90;99.90
64685;DHT22;51109;47.414;18.954;2022-12-24T02:53:41;4.80;99.90
64685;DHT22;51109;47.414;18.954;2022-12-24T02:59:03;4.80;99.90
64685;DHT22;51109;47.414;18.954;2022-12-24T03:07:17;4.90;99.90
64685;DHT22;51109;47.414;18.954;2022-12-24T03:12:42;5.00;99.90
64685;DHT22;51109;47.414;18.954;2022-12-24T03:15:12;5.00;99.90
64685;DHT22;51109;47.414;18.954;2022-12-24T03:17:41;4.90;99.90
64685;DHT22;51109;47.414;18.954;2022-12-24T03:20:10;4.90;99.90
64685;DHT22;51109;47.414;18.954;2022-12-24T03:22:38;4.80;99.90
64685;DHT22;51109;47.414;18.954;2022-12-24T03:25:04;4.90;99.90
64685;DHT22;51109;47.414;18.954;2022-12-24T03:27:31;4.90;99.90
64685;DHT22;51109;47.414;18.954;2022-12-24T03:30:00;5.00;99.90
64685;DHT22;51109;47.414;18.954;2022-12-24T03:32:29;5.00;99.90
64685;DHT22;51109;47.414;18.954;2022-12-24T03:34:55;5.10;99.90
64685;DHT22;51109;47.414;18.954;2022-12-24T03:37:22;5.10;99.90
64685;DHT22;51109;47.414;18.954;2022-12-24T03:39:55;5.10;99.90
64685;DHT22;51109;47.414;18.954;2022-12-24T03:42:21;5.10;99.90
64685;DHT22;51109;47.414;18.954;2022-12-24T03:44:47;5.20;99.90
64685;DHT22;51109;47.414;18.954;2022-12-24T03:47:13;5.20;99.90
64685;DHT22;51109;47.414;18.954;2022-12-24T03:49:39;5.10;99.90
64685;DHT22;51109;47.414;18.954;2022-12-24T03:52:05;5.10;99.90
64685;DHT22;51109;47.414;18.954;2022-12-24T03:54:31;5.20;99.90
64685;DHT22;51109;47.414;18.954;2022-12-24T03:56:56;5.20;99.90
64685;DHT22;51109;47.414;18.954;2022-12-24T03:59:23;5.10;99.90
64685;DHT22;51109;47.414;18.954;2022-12-24T04:01:49;5.20;99.90
64685;DHT22;51109;47.414;18.954;2022-12-24T04:04:15;5.20;99.90
64685;DHT22;51109;47.414;18.954;2022-12-24T04:06:41;5.10;99.90
64685;DHT22;51109;47.414;18.954;2022-12-24T04:09:07;5.20;99.90
64685;DHT22;51109;47.414;18.954;2022-12-24T04:11:34;5.20;99.90
64685;DHT22;51109;47.414;18.954;2022-12-24T04:13:59;5.30;99.90
64685;DHT22;51109;47.414;18.954;2022-12-24T04:16:25;5.40;99.90
64685;DHT22;51109;47.414;18.954;2022-12-24T04:18:51;5.40;99.90
64685;DHT22;51109;47.414;18.954;2022-12-24T04:21:17;5.40;99.90
64685;DHT22;51109;47.414;18.954;2022-12-24T04:23:43;5.40;99.90
64685;DHT22;51109;47.414;18.954;2022-12-24T04:26:11;5.40;99.90
64685;DHT22;51109;47.414;18.954;2022-12-24T04:28:38;5.40;99.90
64685;DHT22;51109;47.414;18.954;2022-12-24T04:31:13;5.40;99.90
64685;DHT22;51109;47.414;18.954;2022-12-24T04:33:39;5.40;99.90
64685;DHT22;51109;47.414;18.954;2022-12-24T04:36:06;5.40;99.90
64685;DHT22;51109;47.414;18.954;2022-12-24T04:38:33;5.40;99.90
64685;DHT22;51109;47.414;18.954;2022-12-24T04:41:17;5.40;99.90
64685;DHT22;51109;47.414;18.954;2022-12-24T04:43:43;5.30;99.90
64685;DHT22;51109;47.414;18.954;2022-12-24T04:46:18;5.40;99.90
64685;DHT22;51109;47.414;18.954;2022-12-24T04:48:46;5.30;99.90
64685;DHT22;51109;47.414;18.954;2022-12-24T04:51:13;5.20;99.90
64685;DHT22;51109;47.414;18.954;2022-12-24T04:53:39;5.30;99.90
64685;DHT22;51109;47.414;18.954;2022-12-24T04:56:14;5.30;99.90
64685;DHT22;51109;47.414;18.954;2022-12-24T04:58:41;5.30;99.90
64685;DHT22;51109;47.414;18.954;2022-12-24T05:01:11;5.30;99.90
64685;DHT22;51109;47.414;18.954;2022-12-24T05:03:38;5.30;99.90
64685;DHT22;51109;47.414;18.954;2022-12-24T05:06:06;5.20;99.90
64685;DHT22;51109;47.414;18.954;2022-12-24T05:08:33;5.30;99.90
64685;DHT22;51109;47.414;18.954;2022-12-24T05:11:00;5.20;99.90
64685;DHT22;51109;47.414;18.954;2022-12-24T05:13:27;5.20;99.90
64685;DHT22;51109;47.414;18.954;2022-12-24T05:15:53;5.30;99.90
64685;DHT22;51109;47.414;18.954;2022-12-24T05:18:20;5.30;99.90
64685;DHT22;51109;47.414;18.954;2022-12-24T05:20:47;5.30;99.90
64685;DHT22;51109;47.414;18.954;2022-12-24T05:23:17;5.30;99.90
64685;DHT22;51109;47.414;18.954;2022-12-24T05:26:02;5.30;99.90
64685;DHT22;51109;47.414;18.954;2022-12-24T05:28:47;5.40;99.90
64685;DHT22;51109;47.414;18.954;2022-12-24T05:31:13;5.50;99.90
64685;DHT22;51109;47.414;18.954;2022-12-24T05:33:39;5.50;99.90
64685;DHT22;51109;47.414;18.954;2022-12-24T05:36:05;5.50;99.90
64685;DHT22;51109;47.414;18.954;2022-12-24T05:38:31;5.50;99.90
64685;DHT22;51109;47.414;18.954;2022-12-24T05:40:57;5.60;99.90
64685;DHT22;51109;47.414;18.954;2022-12-24T05:43:23;5.60;99.90
64685;DHT22;51109;47.414;18.954;2022-12-24T05:45:49;5.60;99.90
64685;DHT22;51109;47.414;18.954;2022-12-24T05:48:15;5.60;99.90
64685;DHT22;51109;47.414;18.954;2022-12-24T05:50:40;5.50;99.90
64685;DHT22;51109;47.414;18.954;2022-12-24T05:53:06;5.50;99.90
64685;DHT22;51109;47.414;18.954;2022-12-24T05:55:33;5.40;99.90
64685;DHT22;51109;47.414;18.954;2022-12-24T05:57:59;5.30;99.90
64685;DHT22;51109;47.414;18.954;2022-12-24T06:00:25;5.40;99.90
64685;DHT22;51109;47.414;18.954;2022-12-24T06:02:51;5.70;99.90
64685;DHT22;51109;47.414;18.954;2022-12-24T06:05:17;5.80;99.90
64685;DHT22;51109;47.414;18.954;2022-12-24T06:07:43;5.80;99.90
64685;DHT22;51109;47.414;18.954;2022-12-24T06:10:14;5.70;99.90
64685;DHT22;51109;47.414;18.954;2022-12-24T06:12:41;5.70;99.90
64685;DHT22;51109;47.414;18.954;2022-12-24T06:15:07;5.60;99.90
64685;DHT22;51109;47.414;18.954;2022-12-24T06:17:33;5.50;99.90
64685;DHT22;51109;47.414;18.954;2022-12-24T06:20:03;5.40;99.90
64685;DHT22;51109;47.414;18.954;2022-12-24T06:22:30;5.30;99.90
64685;DHT22;51109;47.414;18.954;2022-12-24T06:24:55;5.10;99.90
64685;DHT22;51109;47.414;18.954;2022-12-24T06:27:22;5.10;99.90
64685;DHT22;51109;47.414;18.954;2022-12-24T06:29:48;4.90;99.90
64685;DHT22;51109;47.414;18.954;2022-12-24T06:32:14;5.00;99.90
64685;DHT22;51109;47.414;18.954;2022-12-24T06:34:40;5.00;99.90
64685;DHT22;51109;47.414;18.954;2022-12-24T06:37:06;5.00;99.90
64685;DHT22;51109;47.414;18.954;2022-12-24T06:39:32;5.00;99.90
64685;DHT22;51109;47.414;18.954;2022-12-24T06:41:58;5.00;99.90
64685;DHT22;51109;47.414;18.954;2022-12-24T06:44:24;5.00;99.90
64685;DHT22;51109;47.414;18.954;2022-12-24T06:46:51;4.90;99.90
64685;DHT22;51109;47.414;18.954;2022-12-24T06:49:16;4.90;99.90
64685;DHT22;51109;47.414;18.954;2022-12-24T06:51:42;4.90;99.90
64685;DHT22;51109;47.414;18.954;2022-12-24T06:54:08;5.00;99.90
64685;DHT22;51109;47.414;18.954;2022-12-24T06:56:34;5.10;99.90
64685;DHT22;51109;47.414;18.954;2022-12-24T06:59:00;5.10;99.90
64685;DHT22;51109;47.414;18.954;2022-12-24T07:01:26;5.00;99.90
64685;DHT22;51109;47.414;18.954;2022-12-24T07:03:52;5.00;99.90
64685;DHT22;51109;47.414;18.954;2022-12-24T07:06:24;5.00;99.90
64685;DHT22;51109;47.414;18.954;2022-12-24T07:08:50;4.90;99.90
64685;DHT22;51109;47.414;18.954;2022-12-24T07:11:17;4.80;99.90
64685;DHT22;51109;47.414;18.954;2022-12-24T07:13:43;4.70;99.90
64685;DHT22;51109;47.414;18.954;2022-12-24T07:16:09;4.80;99.90
64685;DHT22;51109;47.414;18.954;2022-12-24T07:18:35;4.90;99.90
64685;DHT22;51109;47.414;18.954;2022-12-24T07:21:04;5.00;99.90
64685;DHT22;51109;47.414;18.954;2022-12-24T07:23:32;5.10;99.90
64685;DHT22;51109;47.414;18.954;2022-12-24T07:26:01;5.50;99.90
64685;DHT22;51109;47.414;18.954;2022-12-24T07:28:28;5.80;99.90
64685;DHT22;51109;47.414;18.954;2022-12-24T07:30:57;6.20;99.90
64685;DHT22;51109;47.414;18.954;2022-12-24T07:33:24;6.70;99.90
64685;DHT22;51109;47.414;18.954;2022-12-24T07:36:07;7.00;99.90
64685;DHT22;51109;47.414;18.954;2022-12-24T07:38:34;7.20;99.90
64685;DHT22;51109;47.414;18.954;2022-12-24T07:41:00;7.50;99.90
64685;DHT22;51109;47.414;18.954;2022-12-24T07:43:27;7.50;99.90
64685;DHT22;51109;47.414;18.954;2022-12-24T07:45:56;7.40;99.90
64685;DHT22;51109;47.414;18.954;2022-12-24T07:48:24;7.30;99.90
64685;DHT22;51109;47.414;18.954;2022-12-24T07:50:51;7.20;99.90
64685;DHT22;51109;47.414;18.954;2022-12-24T07:53:18;7.20;99.90
64685;DHT22;51109;47.414;18.954;2022-12-24T07:55:44;7.10;99.90
64685;DHT22;51109;47.414;18.954;2022-12-24T07:58:10;7.10;99.90
64685;DHT22;51109;47.414;18.954;2022-12-24T08:00:37;7.20;99.90
64685;DHT22;51109;47.414;18.954;2022-12-24T08:03:03;7.20;99.90
64685;DHT22;51109;47.414;18.954;2022-12-24T08:05:33;7.30;99.90
64685;DHT22;51109;47.414;18.954;2022-12-24T08:08:00;7.30;99.90
64685;DHT22;51109;47.414;18.954;2022-12-24T08:10:26;7.30;99.90
64685;DHT22;51109;47.414;18.954;2022-12-24T08:12:52;7.30;99.90
64685;DHT22;51109;47.414;18.954;2022-12-24T08:15:18;7.30;99.90
64685;DHT22;51109;47.414;18.954;2022-12-24T08:17:44;7.20;99.90
64685;DHT22;51109;47.414;18.954;2022-12-24T08:20:11;7.30;99.90
64685;DHT22;51109;47.414;18.954;2022-12-24T08:22:37;7.30;99.90
64685;DHT22;51109;47.414;18.954;2022-12-24T08:25:04;7.30;99.90
64685;DHT22;51109;47.414;18.954;2022-12-24T08:27:29;7.30;99.90
64685;DHT22;51109;47.414;18.954;2022-12-24T08:29:56;7.40;99.90
64685;DHT22;51109;47.414;18.954;2022-12-24T08:32:22;7.40;99.90
64685;DHT22;51109;47.414;18.954;2022-12-24T08:34:49;7.50;99.90
64685;DHT22;51109;47.414;18.954;2022-12-24T08:37:14;7.50;99.90
64685;DHT22;51109;47.414;18.954;2022-12-24T08:39:43;7.50;99.90
64685;DHT22;51109;47.414;18.954;2022-12-24T08:42:09;7.60;99.90
64685;DHT22;51109;47.414;18.954;2022-12-24T08:44:35;8.10;99.90
64685;DHT22;51109;47.414;18.954;2022-12-24T08:47:01;8.40;99.90
64685;DHT22;51109;47.414;18.954;2022-12-24T08:49:26;8.90;99.90
64685;DHT22;51109;47.414;18.954;2022-12-24T08:51:52;9.20;99.90
64685;DHT22;51109;47.414;18.954;2022-12-24T08:54:18;9.20;99.90
64685;DHT22;51109;47.414;18.954;2022-12-24T08:56:44;9.40;99.90
64685;DHT22;51109;47.414;18.954;2022-12-24T08:59:10;9.40;99.90
64685;DHT22;51109;47.414;18.954;2022-12-24T09:01:37;9.30;99.90
64685;DHT22;51109;47.414;18.954;2022-12-24T09:04:03;9.30;99.90
64685;DHT22;51109;47.414;18.954;2022-12-24T09:06:31;9.20;99.90
64685;DHT22;51109;47.414;18.954;2022-12-24T09:08:57;9.30;99.90
64685;DHT22;51109;47.414;18.954;2022-12-24T09:11:24;9.20;99.90
64685;DHT22;51109;47.414;18.954;2022-12-24T09:13:50;9.20;99.90
64685;DHT22;51109;47.414;18.954;2022-12-24T09:16:16;9.20;99.90
64685;DHT22;51109;47.414;18.954;2022-12-24T09:18:42;9.20;99.90
64685;DHT22;51109;47.414;18.954;2022-12-24T09:21:14;9.30;99.90
64685;DHT22;51109;47.414;18.954;2022-12-24T09:23:41;9.30;99.90
64685;DHT22;51109;47.414;18.954;2022-12-24T09:26:09;9.30;99.90
64685;DHT22;51109;47.414;18.954;2022-12-24T09:28:35;9.40;99.90
64685;DHT22;51109;47.414;18.954;2022-12-24T09:31:03;9.50;99.90
64685;DHT22;51109;47.414;18.954;2022-12-24T09:33:31;9.50;99.90
64685;DHT22;51109;47.414;18.954;2022-12-24T09:36:18;9.50;99.90
64685;DHT22;51109;47.414;18.954;2022-12-24T09:38:44;9.60;99.90
64685;DHT22;51109;47.414;18.954;2022-12-24T09:41:23;9.70;99.90
64685;DHT22;51109;47.414;18.954;2022-12-24T09:43:54;10.10;99.90
64685;DHT22;51109;47.414;18.954;2022-12-24T09:46:25;10.10;99.90
64685;DHT22;51109;47.414;18.954;2022-12-24T09:49:02;10.00;99.90
64685;DHT22;51109;47.414;18.954;2022-12-24T09:51:40;10.10;99.90
64685;DHT22;51109;47.414;18.954;2022-12-24T09:54:16;10.10;99.90
64685;DHT22;51109;47.414;18.954;2022-12-24T09:56:46;10.20;99.90
64685;DHT22;51109;47.414;18.954;2022-12-24T09:59:19;10.20;99.90
64685;DHT22;51109;47.414;18.954;2022-12-24T10:01:46;10.30;99.90
64685;DHT22;51109;47.414;18.954;2022-12-24T10:04:16;10.40;99.90
64685;DHT22;51109;47.414;18.954;2022-12-24T10:20:21;10.30;99.90
64685;DHT22;51109;47.414;18.954;2022-12-24T10:29:14;10.30;99.90
64685;DHT22;51109;47.414;18.954;2022-12-24T10:31:57;10.40;99.90
64685;DHT22;51109;47.414;18.954;2022-12-24T10:34:29;10.40;99.90
64685;DHT22;51109;47.414;18.954;2022-12-24T10:36:57;10.50;99.90
64685;DHT22;51109;47.414;18.954;2022-12-24T10:39:25;10.60;99.90
64685;DHT22;51109;47.414;18.954;2022-12-24T10:41:54;10.80;99.90
64685;DHT22;51109;47.414;18.954;2022-12-24T10:44:27;10.80;99.90
64685;DHT22;51109;47.414;18.954;2022-12-24T10:46:55;10.90;99.90
64685;DHT22;51109;47.414;18.954;2022-12-24T10:49:35;11.00;99.90
64685;DHT22;51109;47.414;18.954;2022-12-24T10:52:05;11.00;99.90
64685;DHT22;51109;47.414;18.954;2022-12-24T10:54:35;11.00;99.90
64685;DHT22;51109;47.414;18.954;2022-12-24T10:57:05;11.10;99.90
64685;DHT22;51109;47.414;18.954;2022-12-24T10:59:54;11.30;99.90
64685;DHT22;51109;47.414;18.954;2022-12-24T11:02:37;11.30;99.90
64685;DHT22;51109;47.414;18.954;2022-12-24T11:05:30;11.30;99.90
64685;DHT22;51109;47.414;18.954;2022-12-24T11:10:43;11.40;99.90
64685;DHT22;51109;47.414;18.954;2022-12-24T11:13:28;11.50;99.90
64685;DHT22;51109;47.414;18.954;2022-12-24T11:18:32;11.50;99.90
64685;DHT22;51109;47.414;18.954;2022-12-24T11:20:59;11.40;99.90
64685;DHT22;51109;47.414;18.954;2022-12-24T11:23:27;11.40;99.90
64685;DHT22;51109;47.414;18.954;2022-12-24T11:25:54;11.50;99.90
64685;DHT22;51109;47.414;18.954;2022-12-24T11:28:28;11.50;99.90
64685;DHT22;51109;47.414;18.954;2022-12-24T11:31:18;11.50;99.90
64685;DHT22;51109;47.414;18.954;2022-12-24T11:33:50;11.60;99.90
64685;DHT22;51109;47.414;18.954;2022-12-24T11:36:23;11.60;99.90
64685;DHT22;51109;47.414;18.954;2022-12-24T11:38:52;11.50;99.90
64685;DHT22;51109;47.414;18.954;2022-12-24T11:41:19;11.50;99.90
64685;DHT22;51109;47.414;18.954;2022-12-24T11:43:47;11.50;99.90
64685;DHT22;51109;47.414;18.954;2022-12-24T11:46:39;11.50;99.90
64685;DHT22;51109;47.414;18.954;2022-12-24T11:55:06;11.70;99.90
64685;DHT22;51109;47.414;18.954;2022-12-24T11:57:36;11.60;99.90
64685;DHT22;51109;47.414;18.954;2022-12-24T12:00:04;11.70;99.90
64685;DHT22;51109;47.414;18.954;2022-12-24T12:02:37;11.70;99.90
64685;DHT22;51109;47.414;18.954;2022-12-24T12:05:17;11.60;99.90
64685;DHT22;51109;47.414;18.954;2022-12-24T12:07:47;11.80;99.90
64685;DHT22;51109;47.414;18.954;2022-12-24T12:10:24;11.80;99.90
64685;DHT22;51109;47.414;18.954;2022-12-24T12:13:02;11.80;99.90
64685;DHT22;51109;47.414;18.954;2022-12-24T12:15:42;11.80;99.90
64685;DHT22;51109;47.414;18.954;2022-12-24T12:18:34;11.80;99.90
64685;DHT22;51109;47.414;18.954;2022-12-24T12:21:05;11.70;99.90
64685;DHT22;51109;47.414;18.954;2022-12-24T12:23:37;11.70;99.90
64685;DHT22;51109;47.414;18.954;2022-12-24T12:26:11;11.70;99.90
64685;DHT22;51109;47.414;18.954;2022-12-24T12:34:28;11.50;99.90
64685;DHT22;51109;47.414;18.954;2022-12-24T12:37:40;11.60;99.90
64685;DHT22;51109;47.414;18.954;2022-12-24T12:40:16;11.60;99.90
64685;DHT22;51109;47.414;18.954;2022-12-24T12:43:02;11.60;99.90
64685;DHT22;51109;47.414;18.954;2022-12-24T12:45:41;11.60;99.90
64685;DHT22;51109;47.414;18.954;2022-12-24T12:48:34;11.70;99.90
64685;DHT22;51109;47.414;18.954;2022-12-24T12:51:31;11.70;99.90
64685;DHT22;51109;47.414;18.954;2022-12-24T12:56:51;11.60;99.90
64685;DHT22;51109;47.414;18.954;2022-12-24T13:02:00;11.50;99.90
64685;DHT22;51109;47.414;18.954;2022-12-24T13:07:35;11.40;99.90
64685;DHT22;51109;47.414;18.954;2022-12-24T13:21:20;11.40;99.90
64685;DHT22;51109;47.414;18.954;2022-12-24T13:23:47;11.40;99.90
64685;DHT22;51109;47.414;18.954;2022-12-24T13:26:17;11.40;99.90
64685;DHT22;51109;47.414;18.954;2022-12-24T13:28:44;11.30;99.90
64685;DHT22;51109;47.414;18.954;2022-12-24T13:33:47;11.30;99.90
64685;DHT22;51109;47.414;18.954;2022-12-24T13:36:17;11.30;99.90
64685;DHT22;51109;47.414;18.954;2022-12-24T13:39:04;11.30;99.90
64685;DHT22;51109;47.414;18.954;2022-12-24T13:49:42;11.30;99.90
64685;DHT22;51109;47.414;18.954;2022-12-24T13:57:38;11.50;99.90
64685;DHT22;51109;47.414;18.954;2022-12-24T14:02:46;11.50;99.90
64685;DHT22;51109;47.414;18.954;2022-12-24T14:05:21;11.60;99.90
64685;DHT22;51109;47.414;18.954;2022-12-24T14:07:50;11.40;99.90
64685;DHT22;51109;47.414;18.954;2022-12-24T14:10:25;11.40;99.90
64685;DHT22;51109;47.414;18.954;2022-12-24T14:12:51;11.30;99.90
64685;DHT22;51109;47.414;18.954;2022-12-24T14:18:23;11.20;99.90
64685;DHT22;51109;47.414;18.954;2022-12-24T14:20:51;11.10;99.90
64685;DHT22;51109;47.414;18.954;2022-12-24T14:26:02;11.20;99.90
64685;DHT22;51109;47.414;18.954;2022-12-24T14:28:40;11.10;99.90
64685;DHT22;51109;47.414;18.954;2022-12-24T14:31:14;11.10;99.90
64685;DHT22;51109;47.414;18.954;2022-12-24T14:33:40;11.00;99.90
64685;DHT22;51109;47.414;18.954;2022-12-24T14:36:06;11.00;99.90
64685;DHT22;51109;47.414;18.954;2022-12-24T14:38:33;11.00;99.90
64685;DHT22;51109;47.414;18.954;2022-12-24T14:54:33;10.60;99.90
64685;DHT22;51109;47.414;18.954;2022-12-24T14:57:24;10.50;99.90
64685;DHT22;51109;47.414;18.954;2022-12-24T15:02:24;10.50;99.90
64685;DHT22;51109;47.414;18.954;2022-12-24T15:05:15;10.30;99.90
64685;DHT22;51109;47.414;18.954;2022-12-24T15:07:55;10.10;99.90
64685;DHT22;51109;47.414;18.954;2022-12-24T15:10:27;10.00;99.90
64685;DHT22;51109;47.414;18.954;2022-12-24T15:12:55;9.60;99.90
64685;DHT22;51109;47.414;18.954;2022-12-24T15:15:21;9.30;99.90
64685;DHT22;51109;47.414;18.954;2022-12-24T15:17:48;9.20;99.90
64685;DHT22;51109;47.414;18.954;2022-12-24T15:20:17;9.20;99.90
64685;DHT22;51109;47.414;18.954;2022-12-24T15:22:44;9.10;99.90
64685;DHT22;51109;47.414;18.954;2022-12-24T15:25:30;8.90;99.90
64685;DHT22;51109;47.414;18.954;2022-12-24T15:27:57;8.70;99.90
64685;DHT22;51109;47.414;18.954;2022-12-24T15:30:26;8.60;99.90
64685;DHT22;51109;47.414;18.954;2022-12-24T15:32:54;8.60;99.90
64685;DHT22;51109;47.414;18.954;2022-12-24T15:35:50;8.70;99.90
64685;DHT22;51109;47.414;18.954;2022-12-24T15:38:36;8.70;99.90
64685;DHT22;51109;47.414;18.954;2022-12-24T15:41:20;8.60;99.90
64685;DHT22;51109;47.414;18.954;2022-12-24T15:43:47;8.50;99.90
64685;DHT22;51109;47.414;18.954;2022-12-24T15:46:32;8.40;99.90
64685;DHT22;51109;47.414;18.954;2022-12-24T15:48:59;8.20;99.90
64685;DHT22;51109;47.414;18.954;2022-12-24T15:51:30;8.10;99.90
64685;DHT22;51109;47.414;18.954;2022-12-24T15:54:01;8.40;99.90
64685;DHT22;51109;47.414;18.954;2022-12-24T16:01:46;8.40;99.90
64685;DHT22;51109;47.414;18.954;2022-12-24T16:04:15;8.40;99.90
64685;DHT22;51109;47.414;18.954;2022-12-24T16:06:57;8.50;99.90
64685;DHT22;51109;47.414;18.954;2022-12-24T16:09:30;8.70;99.90
64685;DHT22;51109;47.414;18.954;2022-12-24T16:11:57;8.90;99.90
64685;DHT22;51109;47.414;18.954;2022-12-24T16:14:23;9.10;99.90
64685;DHT22;51109;47.414;18.954;2022-12-24T16:16:50;8.90;99.90
64685;DHT22;51109;47.414;18.954;2022-12-24T16:19:29;9.40;99.90
64685;DHT22;51109;47.414;18.954;2022-12-24T16:21:58;8.50;99.90
64685;DHT22;51109;47.414;18.954;2022-12-24T16:24:29;8.30;99.90
64685;DHT22;51109;47.414;18.954;2022-12-24T16:26:58;8.20;99.90
64685;DHT22;51109;47.414;18.954;2022-12-24T16:29:24;8.10;99.90
64685;DHT22;51109;47.414;18.954;2022-12-24T16:31:54;8.10;99.90
64685;DHT22;51109;47.414;18.954;2022-12-24T16:34:29;8.20;99.90
64685;DHT22;51109;47.414;18.954;2022-12-24T16:36:56;8.30;99.90
64685;DHT22;51109;47.414;18.954;2022-12-24T16:39:26;8.30;99.90
64685;DHT22;51109;47.414;18.954;2022-12-24T16:41:57;8.40;99.90
64685;DHT22;51109;47.414;18.954;2022-12-24T16:44:42;8.40;99.90
64685;DHT22;51109;47.414;18.954;2022-12-24T16:49:41;8.40;99.90
64685;DHT22;51109;47.414;18.954;2022-12-24T16:52:15;8.40;99.90
64685;DHT22;51109;47.414;18.954;2022-12-24T16:54:41;8.50;99.90
64685;DHT22;51109;47.414;18.954;2022-12-24T16:57:11;8.50;99.90
64685;DHT22;51109;47.414;18.954;2022-12-24T16:59:37;8.60;99.90
64685;DHT22;51109;47.414;18.954;2022-12-24T17:02:04;8.70;99.90
64685;DHT22;51109;47.414;18.954;2022-12-24T17:04:31;8.80;99.90
64685;DHT22;51109;47.414;18.954;2022-12-24T17:06:58;8.80;99.90
64685;DHT22;51109;47.414;18.954;2022-12-24T17:09:24;8.80;99.90
64685;DHT22;51109;47.414;18.954;2022-12-24T17:11:50;8.80;99.90
64685;DHT22;51109;47.414;18.954;2022-12-24T17:14:15;8.80;99.90
64685;DHT22;51109;47.414;18.954;2022-12-24T17:16:41;8.80;99.90
64685;DHT22;51109;47.414;18.954;2022-12-24T17:19:07;9.00;99.90
64685;DHT22;51109;47.414;18.954;2022-12-24T17:21:34;9.00;99.90
64685;DHT22;51109;47.414;18.954;2022-12-24T17:23:59;9.00;99.90
64685;DHT22;51109;47.414;18.954;2022-12-24T17:26:26;9.10;99.90
64685;DHT22;51109;47.414;18.954;2022-12-24T17:28:53;9.00;99.90
64685;DHT22;51109;47.414;18.954;2022-12-24T17:31:20;9.10;99.90
64685;DHT22;51109;47.414;18.954;2022-12-24T17:33:48;9.10;99.90
64685;DHT22;51109;47.414;18.954;2022-12-24T17:36:14;9.10;99.90
64685;DHT22;51109;47.414;18.954;2022-12-24T17:38:40;9.10;99.90
64685;DHT22;51109;47.414;18.954;2022-12-24T17:41:09;9.10;99.90
64685;DHT22;51109;47.414;18.954;2022-12-24T17:43:36;9.10;99.90
64685;DHT22;51109;47.414;18.954;2022-12-24T17:46:10;9.00;99.90
64685;DHT22;51109;47.414;18.954;2022-12-24T17:48:37;9.00;99.90
64685;DHT22;51109;47.414;18.954;2022-12-24T17:51:12;9.10;99.90
64685;DHT22;51109;47.414;18.954;2022-12-24T17:53:40;9.10;99.90
64685;DHT22;51109;47.414;18.954;2022-12-24T17:56:07;9.00;99.90
64685;DHT22;51109;47.414;18.954;2022-12-24T17:58:35;9.00;99.90
64685;DHT22;51109;47.414;18.954;2022-12-24T18:01:01;9.00;99.90
64685;DHT22;51109;47.414;18.954;2022-12-24T18:03:27;8.90;99.90
64685;DHT22;51109;47.414;18.954;2022-12-24T18:05:53;8.80;99.90